createdAt,value
2023-03-24T00:00:20.553Z,77.19
2023-03-24T00:02:49.247Z,77.60
2023-03-24T00:05:18.673Z,77.52
2023-03-24T00:07:47.981Z,78.89
2023-03-24T00:10:18.205Z,80.45
2023-03-24T00:12:46.497Z,80.13
2023-03-24T00:15:16.064Z,77.77
2023-03-24T00:17:43.728Z,78.51
2023-03-24T00:20:14.864Z,77.67
2023-03-24T00:22:43.263Z,75.72
2023-03-24T00:25:12.946Z,74.58
2023-03-24T00:27:40.445Z,72.81
2023-03-24T00:30:11.370Z,72.92
2023-03-24T00:32:40.499Z,73.22
2023-03-24T00:35:10.394Z,73.57
2023-03-24T00:37:39.242Z,74.08
2023-03-24T00:40:10.714Z,73.75
2023-03-24T00:42:40.447Z,75.58
2023-03-24T00:45:09.752Z,77.42
2023-03-24T00:47:38.062Z,77.17
2023-03-24T00:50:07.277Z,75.98
2023-03-24T00:52:35.186Z,76.22
2023-03-24T00:55:05.123Z,76.47
2023-03-24T00:57:34.885Z,76.01
2023-03-24T01:00:13.461Z,75.02
2023-03-24T01:02:41.494Z,76.50
2023-03-24T01:05:09.446Z,77.49
2023-03-24T01:07:37.009Z,78.73
2023-03-24T01:10:04.970Z,78.42
2023-03-24T01:12:34.150Z,79.49
2023-03-24T01:15:06.532Z,80.09
2023-03-24T01:17:34.558Z,78.74
2023-03-24T01:20:07.401Z,79.77
2023-03-24T01:22:37.667Z,76.55
2023-03-24T01:25:05.878Z,73.86
2023-03-24T01:27:33.552Z,73.98
2023-03-24T01:30:02.969Z,72.71
2023-03-24T01:32:30.747Z,71.01
2023-03-24T01:34:58.268Z,70.88
2023-03-24T01:37:25.873Z,71.69
2023-03-24T01:39:53.374Z,74.14
2023-03-24T01:42:22.793Z,75.04
2023-03-24T01:44:52.107Z,77.93
2023-03-24T01:47:20.937Z,80.68
2023-03-24T01:49:53.658Z,86.03
2023-03-24T01:52:27.517Z,90.54
2023-03-24T01:54:58.149Z,92.94
2023-03-24T01:57:30.165Z,93.00
2023-03-24T02:00:00.985Z,93.61
2023-03-24T02:02:29.984Z,98.09
2023-03-24T02:05:04.694Z,95.45
2023-03-24T02:07:35.068Z,93.32
2023-03-24T02:10:05.813Z,92.65
2023-03-24T02:12:33.990Z,91.94
2023-03-24T02:15:02.294Z,94.79
2023-03-24T02:17:46.459Z,97.75
2023-03-24T02:21:04.513Z,95.63
2023-03-24T02:24:03.267Z,94.42
2023-03-24T02:26:57.812Z,100.00
2023-03-24T02:30:02.023Z,97.34
2023-03-24T02:33:01.483Z,99.50
2023-03-24T02:35:51.602Z,97.47
2023-03-24T02:38:45.592Z,98.79
2023-03-24T02:41:20.926Z,100.00
2023-03-24T02:43:56.522Z,100.00
2023-03-24T02:46:26.983Z,100.00
2023-03-24T02:49:09.632Z,100.00
2023-03-24T02:51:41.158Z,100.00
2023-03-24T02:54:12.372Z,100.00
2023-03-24T02:56:48.188Z,100.00
2023-03-24T02:59:21.238Z,100.00
2023-03-24T03:01:54.251Z,100.00
2023-03-24T03:04:29.289Z,100.00
2023-03-24T03:07:00.647Z,100.00
2023-03-24T03:09:29.743Z,100.00
2023-03-24T03:12:01.463Z,100.00
2023-03-24T03:14:34.993Z,100.00
2023-03-24T03:17:06.580Z,100.00
2023-03-24T03:19:39.203Z,100.00
2023-03-24T03:22:13.894Z,100.00
2023-03-24T03:24:46.748Z,100.00
2023-03-24T03:27:18.953Z,100.00
2023-03-24T03:29:50.622Z,100.00
2023-03-24T03:32:24.691Z,100.00
2023-03-24T03:35:01.048Z,100.00
2023-03-24T03:37:34.706Z,100.00
2023-03-24T03:40:09.081Z,100.00
2023-03-24T03:42:38.020Z,100.00
2023-03-24T03:45:09.226Z,100.00
2023-03-24T03:47:37.223Z,100.00
2023-03-24T03:50:05.818Z,100.00
2023-03-24T03:52:33.354Z,100.00
2023-03-24T03:55:01.249Z,100.00
2023-03-24T03:57:28.783Z,100.00
2023-03-24T03:59:58.781Z,100.00
2023-03-24T04:02:37.081Z,100.00
2023-03-24T04:05:27.610Z,100.00
2023-03-24T04:08:08.332Z,100.00
2023-03-24T04:10:51.538Z,100.00
2023-03-24T04:13:28.386Z,100.00
2023-03-24T04:16:01.640Z,100.00
2023-03-24T04:18:38.720Z,100.00
2023-03-24T04:21:28.470Z,100.00
2023-03-24T04:24:07.357Z,100.00
2023-03-24T04:26:41.411Z,100.00
2023-03-24T04:29:18.461Z,100.00
2023-03-24T04:31:53.588Z,100.00
2023-03-24T04:34:25.941Z,100.00
2023-03-24T04:37:02.678Z,100.00
2023-03-24T04:39:32.042Z,100.00
2023-03-24T04:42:04.496Z,100.00
2023-03-24T04:44:33.861Z,100.00
2023-03-24T04:47:05.672Z,100.00
2023-03-24T04:49:33.142Z,100.00
2023-03-24T04:52:00.848Z,100.00
2023-03-24T04:54:29.722Z,100.00
2023-03-24T04:56:59.259Z,100.00
2023-03-24T04:59:27.123Z,100.00
2023-03-24T05:01:54.879Z,100.00
2023-03-24T05:04:25.563Z,100.00
2023-03-24T05:06:53.344Z,100.00
2023-03-24T05:09:23.136Z,100.00
2023-03-24T05:11:51.682Z,100.00
2023-03-24T05:14:19.502Z,100.00
2023-03-24T05:16:47.009Z,100.00
2023-03-24T05:19:14.557Z,100.00
2023-03-24T05:21:43.704Z,100.00
2023-03-24T05:24:12.287Z,100.00
2023-03-24T05:26:39.797Z,100.00
2023-03-24T05:29:07.244Z,100.00
2023-03-24T05:31:34.754Z,100.00
2023-03-24T05:34:02.227Z,100.00
2023-03-24T05:36:29.699Z,100.00
2023-03-24T05:38:58.508Z,100.00
2023-03-24T05:41:26.017Z,100.00
2023-03-24T05:43:53.504Z,100.00
2023-03-24T05:46:21.015Z,100.00
2023-03-24T05:48:48.550Z,100.00
2023-03-24T05:51:16.087Z,100.00
2023-03-24T05:53:43.585Z,100.00
2023-03-24T05:56:12.708Z,100.00
2023-03-24T05:58:40.230Z,100.00
2023-03-24T06:01:10.177Z,100.00
2023-03-24T06:03:39.023Z,100.00
2023-03-24T06:06:08.007Z,100.00
2023-03-24T06:08:36.020Z,100.00
2023-03-24T06:11:04.518Z,100.00
2023-03-24T06:13:33.384Z,100.00
2023-03-24T06:16:03.600Z,100.00
2023-03-24T06:18:32.015Z,100.00
2023-03-24T06:20:59.521Z,100.00
2023-03-24T06:23:28.563Z,100.00
2023-03-24T06:25:58.275Z,100.00
2023-03-24T06:28:30.141Z,100.00
2023-03-24T06:30:59.314Z,100.00
2023-03-24T06:33:26.864Z,100.00
2023-03-24T06:35:54.431Z,100.00
2023-03-24T06:38:22.190Z,100.00
2023-03-24T06:40:49.783Z,100.00
2023-03-24T06:43:17.229Z,100.00
2023-03-24T06:45:45.597Z,100.00
2023-03-24T06:48:14.736Z,100.00
2023-03-24T06:50:42.412Z,100.00
2023-03-24T06:53:09.971Z,100.00
2023-03-24T06:55:37.692Z,100.00
2023-03-24T06:58:05.217Z,100.00
2023-03-24T07:00:32.912Z,100.00
2023-03-24T07:03:02.418Z,100.00
2023-03-24T07:05:32.139Z,100.00
2023-03-24T07:10:30.115Z,100.00
2023-03-24T07:12:59.357Z,100.00
2023-03-24T07:15:26.938Z,100.00
2023-03-24T07:17:54.411Z,100.00
2023-03-24T07:20:22.363Z,100.00
2023-03-24T07:22:51.214Z,100.00
2023-03-24T07:25:21.180Z,100.00
2023-03-24T07:27:48.718Z,100.00
2023-03-24T07:30:17.224Z,100.00
2023-03-24T07:32:49.071Z,100.00
2023-03-24T07:35:18.667Z,100.00
2023-03-24T07:37:46.416Z,100.00
2023-03-24T07:40:16.098Z,100.00
2023-03-24T07:42:44.462Z,100.00
2023-03-24T07:45:13.235Z,100.00
2023-03-24T07:47:44.798Z,100.00
2023-03-24T07:50:13.955Z,100.00
2023-03-24T07:52:43.668Z,100.00
2023-03-24T07:55:12.834Z,100.00
2023-03-24T07:57:43.180Z,100.00
2023-03-24T08:00:15.941Z,100.00
2023-03-24T08:02:43.868Z,100.00
2023-03-24T08:05:14.097Z,100.00
2023-03-24T08:07:42.904Z,100.00
2023-03-24T08:10:11.690Z,100.00
2023-03-24T08:12:39.359Z,100.00
2023-03-24T08:15:10.003Z,100.00
2023-03-24T08:17:37.742Z,100.00
2023-03-24T08:20:14.334Z,100.00
2023-03-24T08:22:43.305Z,100.00
2023-03-24T08:25:11.777Z,100.00
2023-03-24T08:27:43.320Z,100.00
2023-03-24T08:30:16.914Z,100.00
2023-03-24T08:32:46.334Z,100.00
2023-03-24T08:35:15.786Z,100.00
2023-03-24T08:37:45.264Z,100.00
2023-03-24T08:40:17.180Z,100.00
2023-03-24T08:42:45.596Z,100.00
2023-03-24T08:45:14.932Z,100.00
2023-03-24T08:47:42.726Z,100.00
2023-03-24T08:50:11.519Z,100.00
2023-03-24T08:52:38.987Z,100.00
2023-03-24T08:55:07.596Z,100.00
2023-03-24T08:57:35.063Z,100.00
2023-03-24T09:00:04.302Z,100.00
2023-03-24T09:02:33.190Z,100.00
2023-03-24T09:05:01.164Z,100.00
2023-03-24T09:07:28.622Z,100.00
2023-03-24T09:09:56.325Z,100.00
2023-03-24T09:12:23.886Z,100.00
2023-03-24T09:14:51.864Z,100.00
2023-03-24T09:17:19.726Z,100.00
2023-03-24T09:19:48.518Z,100.00
2023-03-24T09:22:15.997Z,100.00
2023-03-24T09:24:44.309Z,100.00
2023-03-24T09:27:12.077Z,100.00
2023-03-24T09:29:39.668Z,100.00
2023-03-24T09:32:07.261Z,100.00
2023-03-24T09:34:34.979Z,100.00
2023-03-24T09:37:03.830Z,100.00
2023-03-24T09:39:32.266Z,100.00
2023-03-24T09:41:59.736Z,100.00
2023-03-24T09:44:32.537Z,100.00
2023-03-24T09:47:04.897Z,100.00
2023-03-24T09:49:38.319Z,100.00
2023-03-24T09:52:09.052Z,100.00
2023-03-24T09:54:43.013Z,100.00
2023-03-24T09:57:19.812Z,100.00
2023-03-24T09:59:47.429Z,100.00
2023-03-24T10:02:17.348Z,100.00
2023-03-24T10:04:44.923Z,100.00
2023-03-24T10:07:22.882Z,100.00
2023-03-24T10:09:57.558Z,100.00
2023-03-24T10:12:36.361Z,100.00
2023-03-24T10:15:24.320Z,100.00
2023-03-24T10:18:15.871Z,100.00
2023-03-24T10:20:48.736Z,100.00
2023-03-24T10:23:27.991Z,100.00
2023-03-24T10:26:01.745Z,100.00
2023-03-24T10:28:36.803Z,100.00
2023-03-24T10:31:11.217Z,100.00
2023-03-24T10:33:43.462Z,100.00
2023-03-24T10:36:14.667Z,100.00
2023-03-24T10:38:43.549Z,100.00
2023-03-24T10:41:16.887Z,100.00
2023-03-24T10:43:45.463Z,100.00
2023-03-24T10:46:15.663Z,100.00
2023-03-24T10:48:45.570Z,100.00
2023-03-24T10:51:16.864Z,100.00
2023-03-24T10:53:48.539Z,100.00
2023-03-24T10:56:37.642Z,100.00
2023-03-24T10:59:16.719Z,100.00
2023-03-24T11:01:44.322Z,100.00
2023-03-24T11:04:15.877Z,100.00
2023-03-24T11:07:00.242Z,100.00
2023-03-24T11:09:32.420Z,100.00
2023-03-24T11:12:04.179Z,100.00
2023-03-24T11:14:31.717Z,100.00
2023-03-24T11:17:11.322Z,100.00
2023-03-24T11:19:39.215Z,100.00
2023-03-24T11:22:08.873Z,100.00
2023-03-24T11:24:38.874Z,100.00
2023-03-24T11:27:06.898Z,100.00
2023-03-24T11:29:39.259Z,100.00
2023-03-24T11:32:14.007Z,100.00
2023-03-24T11:34:46.736Z,100.00
2023-03-24T11:37:18.438Z,100.00
2023-03-24T11:40:16.849Z,100.00
2023-03-24T11:42:46.034Z,100.00
2023-03-24T11:45:27.772Z,100.00
2023-03-24T11:47:58.103Z,100.00
2023-03-24T11:50:29.819Z,100.00
2023-03-24T11:53:04.728Z,100.00
2023-03-24T11:55:37.980Z,100.00
2023-03-24T11:58:17.454Z,100.00
2023-03-24T12:00:49.514Z,100.00
2023-03-24T12:03:49.587Z,100.00
2023-03-24T12:06:31.286Z,100.00
2023-03-24T12:09:10.503Z,100.00
2023-03-24T12:11:53.231Z,100.00
2023-03-24T12:14:29.957Z,100.00
2023-03-24T12:17:04.727Z,100.00
2023-03-24T12:20:12.261Z,100.00
2023-03-24T12:22:52.890Z,100.00
2023-03-24T12:25:47.075Z,98.78
2023-03-24T12:28:33.883Z,89.57
2023-03-24T12:31:15.319Z,94.82
2023-03-24T12:33:51.476Z,97.32
2023-03-24T12:36:38.984Z,100.00
2023-03-24T12:39:11.446Z,97.94
2023-03-24T12:41:52.731Z,99.61
2023-03-24T12:44:51.495Z,100.00
2023-03-24T12:47:31.288Z,100.00
2023-03-24T12:50:17.109Z,100.00
2023-03-24T12:55:40.368Z,100.00
2023-03-24T12:58:15.505Z,97.24
2023-03-24T13:00:53.697Z,100.00
2023-03-24T13:03:29.246Z,99.88
2023-03-24T13:06:07.516Z,100.00
2023-03-24T13:08:45.145Z,95.45
2023-03-24T13:11:30.120Z,93.16
2023-03-24T13:14:04.126Z,91.52
2023-03-24T13:16:38.747Z,86.30
2023-03-24T13:19:15.416Z,81.71
2023-03-24T13:21:43.744Z,82.03
2023-03-24T13:24:15.312Z,84.60
2023-03-24T13:26:52.025Z,78.36
2023-03-24T13:29:48.430Z,80.61
2023-03-24T13:32:30.068Z,85.17
2023-03-24T13:35:02.753Z,84.04
2023-03-24T13:37:35.760Z,79.63
2023-03-24T13:40:10.986Z,80.76
2023-03-24T13:42:44.610Z,87.62
2023-03-24T13:45:25.926Z,86.84
2023-03-24T13:48:06.365Z,90.48
2023-03-24T13:50:35.095Z,94.20
2023-03-24T13:53:08.307Z,96.50
2023-03-24T13:55:39.246Z,93.54
2023-03-24T13:58:10.621Z,92.36
2023-03-24T14:01:06.485Z,87.28
2023-03-24T14:03:37.605Z,83.14
2023-03-24T14:06:09.056Z,81.25
2023-03-24T14:08:55.185Z,79.96
2023-03-24T14:11:42.941Z,73.60
2023-03-24T14:14:19.827Z,75.17
2023-03-24T14:16:53.097Z,78.76
2023-03-24T14:19:24.915Z,77.09
2023-03-24T14:21:58.031Z,75.77
2023-03-24T14:24:28.937Z,74.79
2023-03-24T14:26:56.897Z,74.57
2023-03-24T14:29:38.778Z,75.66
2023-03-24T14:32:19.256Z,74.74
2023-03-24T14:34:56.810Z,76.88
2023-03-24T14:37:25.254Z,77.01
2023-03-24T14:39:53.624Z,79.75
2023-03-24T14:42:46.625Z,78.63
2023-03-24T14:45:40.419Z,79.41
2023-03-24T14:48:22.895Z,79.35
2023-03-24T14:50:53.798Z,76.54
2023-03-24T14:53:23.129Z,77.55
2023-03-24T14:55:51.725Z,77.61
2023-03-24T14:58:24.075Z,76.94
2023-03-24T15:03:37.912Z,76.36
2023-03-24T15:06:15.697Z,76.82
2023-03-24T15:08:46.954Z,78.18
2023-03-24T15:11:18.081Z,78.09
2023-03-24T15:13:48.944Z,78.59
2023-03-24T15:16:23.704Z,80.34
2023-03-24T15:19:01.528Z,80.99
2023-03-24T15:21:35.633Z,81.68
2023-03-24T15:24:05.118Z,82.00
2023-03-24T15:26:33.317Z,82.03
2023-03-24T15:29:03.695Z,83.54
2023-03-24T15:31:31.476Z,82.50
2023-03-24T15:34:25.785Z,82.91
2023-03-24T15:36:57.416Z,90.57
2023-03-24T15:39:27.900Z,94.36
2023-03-24T15:41:55.986Z,99.25
2023-03-24T15:44:27.668Z,98.33
2023-03-24T15:46:57.171Z,100.00
2023-03-24T15:49:27.363Z,100.00
2023-03-24T15:52:00.937Z,100.00
2023-03-24T15:54:31.961Z,100.00
2023-03-24T15:57:17.117Z,100.00
2023-03-24T15:59:48.113Z,100.00
2023-03-24T16:02:26.104Z,100.00
2023-03-24T16:05:09.909Z,100.00
2023-03-24T16:07:42.334Z,100.00
2023-03-24T16:10:28.990Z,100.00
2023-03-24T16:12:56.456Z,100.00
2023-03-24T16:15:24.023Z,100.00
2023-03-24T16:17:52.028Z,100.00
2023-03-24T16:20:21.776Z,100.00
2023-03-24T16:22:50.612Z,100.00
2023-03-24T16:25:18.169Z,100.00
2023-03-24T16:27:45.651Z,100.00
2023-03-24T16:30:21.538Z,100.00
2023-03-24T16:32:49.045Z,100.00
2023-03-24T16:35:16.819Z,100.00
2023-03-24T16:37:44.564Z,100.00
2023-03-24T16:40:26.310Z,100.00
2023-03-24T16:42:53.797Z,100.00
2023-03-24T16:45:21.278Z,100.00
2023-03-24T16:47:48.747Z,100.00
2023-03-24T16:50:28.414Z,100.00
2023-03-24T16:52:55.927Z,100.00
2023-03-24T16:55:24.842Z,100.00
2023-03-24T16:57:52.364Z,100.00
2023-03-24T17:00:20.350Z,100.00
2023-03-24T17:02:49.293Z,100.00
2023-03-24T17:05:24.291Z,100.00
2023-03-24T17:07:52.238Z,100.00
2023-03-24T17:10:19.912Z,100.00
2023-03-24T17:12:49.626Z,100.00
2023-03-24T17:15:20.889Z,100.00
2023-03-24T17:17:48.420Z,100.00
2023-03-24T17:20:16.337Z,100.00
2023-03-24T17:22:45.792Z,100.00
2023-03-24T17:25:15.355Z,100.00
2023-03-24T17:27:42.884Z,100.00
2023-03-24T17:30:16.764Z,100.00
2023-03-24T17:32:44.473Z,100.00
2023-03-24T17:35:13.748Z,100.00
2023-03-24T17:37:41.778Z,100.00
2023-03-24T17:40:11.865Z,100.00
2023-03-24T17:42:41.381Z,100.00
2023-03-24T17:45:11.849Z,100.00
2023-03-24T17:47:41.670Z,100.00
2023-03-24T17:50:10.455Z,100.00
2023-03-24T17:52:38.675Z,100.00
2023-03-24T17:55:07.531Z,100.00
2023-03-24T17:57:35.870Z,100.00
2023-03-24T18:00:06.392Z,100.00
2023-03-24T18:02:33.840Z,100.00
2023-03-24T18:05:03.262Z,100.00
2023-03-24T18:07:30.967Z,100.00
2023-03-24T18:09:58.496Z,100.00
2023-03-24T18:12:27.427Z,100.00
2023-03-24T18:14:54.918Z,100.00
2023-03-24T18:17:22.409Z,100.00
2023-03-24T18:19:51.006Z,100.00
2023-03-24T18:22:19.815Z,100.00
2023-03-24T18:24:47.400Z,100.00
2023-03-24T18:27:14.973Z,100.00
2023-03-24T18:29:42.430Z,100.00
2023-03-24T18:32:10.026Z,100.00
2023-03-24T18:34:38.747Z,100.00
2023-03-24T18:37:06.940Z,100.00
2023-03-24T18:39:39.185Z,100.00
2023-03-24T18:42:06.666Z,100.00
2023-03-24T18:44:34.333Z,100.00
2023-03-24T18:47:01.979Z,100.00
2023-03-24T18:49:29.803Z,100.00
2023-03-24T18:51:57.265Z,100.00
2023-03-24T18:54:24.845Z,100.00
2023-03-24T18:56:53.664Z,100.00
2023-03-24T18:59:21.238Z,100.00
2023-03-24T19:01:48.806Z,100.00
2023-03-24T19:04:16.422Z,100.00
2023-03-24T19:06:44.266Z,100.00
2023-03-24T19:09:13.398Z,100.00
2023-03-24T19:11:43.339Z,100.00
2023-03-24T19:14:12.575Z,100.00
2023-03-24T19:16:40.099Z,100.00
2023-03-24T19:19:07.857Z,100.00
2023-03-24T19:21:35.648Z,100.00
2023-03-24T19:24:03.118Z,100.00
2023-03-24T19:26:30.577Z,100.00
2023-03-24T19:28:58.096Z,100.00
2023-03-24T19:31:26.949Z,100.00
2023-03-24T19:33:55.041Z,100.00
2023-03-24T19:36:22.537Z,100.00
2023-03-24T19:38:50.508Z,100.00
2023-03-24T19:41:18.166Z,100.00
2023-03-24T19:43:45.738Z,100.00
2023-03-24T19:46:13.251Z,100.00
2023-03-24T19:48:42.089Z,100.00
2023-03-24T19:51:09.574Z,100.00
2023-03-24T19:53:37.054Z,100.00
2023-03-24T19:56:05.034Z,100.00
2023-03-24T19:58:32.502Z,100.00
2023-03-24T20:00:59.974Z,100.00
2023-03-24T20:03:28.753Z,100.00
2023-03-24T20:05:57.785Z,100.00
2023-03-24T20:08:25.948Z,100.00
2023-03-24T20:10:53.419Z,100.00
2023-03-24T20:13:20.876Z,100.00
2023-03-24T20:15:48.605Z,100.00
2023-03-24T20:18:16.520Z,100.00
2023-03-24T20:20:44.034Z,100.00
2023-03-24T20:23:12.836Z,100.00
2023-03-24T20:25:42.455Z,100.00
2023-03-24T20:28:10.374Z,100.00
2023-03-24T20:30:39.621Z,100.00
2023-03-24T20:33:07.338Z,100.00
2023-03-24T20:35:36.496Z,100.00
2023-03-24T20:38:04.237Z,100.00
2023-03-24T20:40:33.067Z,100.00
2023-03-24T20:43:00.733Z,100.00
2023-03-24T20:45:28.267Z,100.00
2023-03-24T20:47:55.983Z,100.00
2023-03-24T20:50:24.705Z,100.00
2023-03-24T20:52:52.187Z,100.00
2023-03-24T20:55:19.650Z,100.00
2023-03-24T20:57:48.480Z,100.00
2023-03-24T21:00:16.729Z,100.00
2023-03-24T21:02:44.354Z,100.00
2023-03-24T21:05:12.236Z,100.00
2023-03-24T21:07:43.518Z,100.00
2023-03-24T21:10:12.046Z,100.00
2023-03-24T21:12:53.038Z,100.00
2023-03-24T21:15:24.579Z,100.00
2023-03-24T21:17:52.723Z,100.00
2023-03-24T21:20:20.904Z,100.00
2023-03-24T21:22:53.293Z,100.00
2023-03-24T21:25:21.314Z,100.00
2023-03-24T21:27:48.939Z,100.00
2023-03-24T21:30:18.812Z,100.00
2023-03-24T21:32:48.532Z,100.00
2023-03-24T21:35:17.485Z,100.00
2023-03-24T21:37:46.681Z,100.00
2023-03-24T21:40:18.168Z,100.00
2023-03-24T21:42:49.473Z,100.00
2023-03-24T21:45:18.914Z,100.00
2023-03-24T21:47:49.689Z,100.00
2023-03-24T21:50:22.701Z,100.00
2023-03-24T21:52:51.243Z,100.00
2023-03-24T21:55:20.406Z,100.00
2023-03-24T21:57:49.735Z,100.00
2023-03-24T22:00:19.460Z,100.00
2023-03-24T22:02:50.486Z,100.00
2023-03-24T22:05:20.746Z,100.00
2023-03-24T22:07:49.280Z,100.00
2023-03-24T22:10:22.491Z,100.00
2023-03-24T22:12:50.638Z,100.00
2023-03-24T22:15:18.780Z,100.00
2023-03-24T22:17:47.776Z,100.00
2023-03-24T22:20:15.598Z,100.00
2023-03-24T22:22:43.196Z,100.00
2023-03-24T22:25:13.132Z,100.00
2023-03-24T22:27:41.304Z,100.00
2023-03-24T22:30:11.007Z,100.00
2023-03-24T22:32:38.931Z,100.00
2023-03-24T22:35:09.068Z,100.00
2023-03-24T22:37:36.658Z,100.00
2023-03-24T22:40:06.150Z,100.00
2023-03-24T22:42:33.750Z,100.00
2023-03-24T22:45:01.268Z,100.00
2023-03-24T22:47:29.061Z,100.00
2023-03-24T22:49:56.602Z,100.00
2023-03-24T22:52:27.021Z,100.00
2023-03-24T22:54:55.639Z,100.00
2023-03-24T22:57:23.425Z,100.00
2023-03-24T22:59:50.988Z,100.00
2023-03-24T23:02:24.266Z,100.00
2023-03-24T23:04:51.932Z,100.00
2023-03-24T23:07:22.992Z,100.00
2023-03-24T23:09:53.103Z,100.00
2023-03-24T23:12:21.331Z,100.00
2023-03-24T23:14:48.822Z,100.00
2023-03-24T23:17:16.301Z,100.00
2023-03-24T23:19:43.982Z,100.00
2023-03-24T23:22:11.454Z,100.00
2023-03-24T23:24:39.432Z,100.00
2023-03-24T23:27:08.587Z,100.00
2023-03-24T23:29:39.421Z,100.00
2023-03-24T23:32:07.290Z,100.00
2023-03-24T23:34:35.117Z,100.00
2023-03-24T23:37:03.381Z,100.00
2023-03-24T23:39:31.754Z,100.00
2023-03-24T23:41:59.293Z,100.00
2023-03-24T23:44:28.141Z,100.00
2023-03-24T23:46:55.998Z,100.00
2023-03-24T23:49:23.482Z,100.00
2023-03-24T23:51:51.222Z,100.00
2023-03-24T23:54:18.691Z,100.00
2023-03-24T23:56:47.064Z,100.00
2023-03-24T23:59:14.689Z,100.00
